sensor_id;sensor_type;location;lat;lon;timestamp;P1;durP1;ratioP1;P2;durP2;ratioP2
27857;SDS011;16852;51.446;6.528;2023-05-08T00:00:09;5.03;;;3.95;;
27857;SDS011;16852;51.446;6.528;2023-05-08T00:02:10;4.25;;;3.85;;
27857;SDS011;16852;51.446;6.528;2023-05-08T00:04:10;6.60;;;4.07;;
27857;SDS011;16852;51.446;6.528;2023-05-08T00:06:12;5.40;;;3.92;;
27857;SDS011;16852;51.446;6.528;2023-05-08T00:08:12;4.00;;;3.17;;
27857;SDS011;16852;51.446;6.528;2023-05-08T00:10:13;3.80;;;3.40;;
27857;SDS011;16852;51.446;6.528;2023-05-08T00:12:13;3.63;;;3.30;;
27857;SDS011;16852;51.446;6.528;2023-05-08T00:14:14;3.58;;;2.83;;
27857;SDS011;16852;51.446;6.528;2023-05-08T00:16:15;4.32;;;3.17;;
27857;SDS011;16852;51.446;6.528;2023-05-08T00:18:15;3.70;;;3.22;;
27857;SDS011;16852;51.446;6.528;2023-05-08T00:20:16;5.35;;;3.83;;
27857;SDS011;16852;51.446;6.528;2023-05-08T00:22:16;5.45;;;3.92;;
27857;SDS011;16852;51.446;6.528;2023-05-08T00:24:17;5.07;;;3.40;;
27857;SDS011;16852;51.446;6.528;2023-05-08T00:26:18;4.00;;;3.33;;
27857;SDS011;16852;51.446;6.528;2023-05-08T00:28:19;4.95;;;3.15;;
27857;SDS011;16852;51.446;6.528;2023-05-08T00:30:20;4.57;;;3.38;;
27857;SDS011;16852;51.446;6.528;2023-05-08T00:32:21;3.20;;;2.90;;
27857;SDS011;16852;51.446;6.528;2023-05-08T00:34:21;4.05;;;3.55;;
27857;SDS011;16852;51.446;6.528;2023-05-08T00:36:22;4.10;;;3.42;;
27857;SDS011;16852;51.446;6.528;2023-05-08T00:38:22;4.82;;;3.35;;
27857;SDS011;16852;51.446;6.528;2023-05-08T00:40:23;3.88;;;3.17;;
27857;SDS011;16852;51.446;6.528;2023-05-08T00:42:24;6.43;;;4.05;;
27857;SDS011;16852;51.446;6.528;2023-05-08T00:44:25;5.40;;;4.45;;
27857;SDS011;16852;51.446;6.528;2023-05-08T00:46:25;6.25;;;4.25;;
27857;SDS011;16852;51.446;6.528;2023-05-08T00:48:27;5.78;;;4.40;;
27857;SDS011;16852;51.446;6.528;2023-05-08T00:50:31;5.35;;;4.55;;
27857;SDS011;16852;51.446;6.528;2023-05-08T00:52:32;5.13;;;4.63;;
27857;SDS011;16852;51.446;6.528;2023-05-08T00:54:33;5.43;;;4.45;;
27857;SDS011;16852;51.446;6.528;2023-05-08T00:56:37;5.53;;;4.25;;
27857;SDS011;16852;51.446;6.528;2023-05-08T00:58:39;6.43;;;4.70;;
27857;SDS011;16852;51.446;6.528;2023-05-08T01:00:41;5.78;;;4.40;;
27857;SDS011;16852;51.446;6.528;2023-05-08T01:02:43;6.35;;;4.47;;
27857;SDS011;16852;51.446;6.528;2023-05-08T01:04:45;6.00;;;4.87;;
27857;SDS011;16852;51.446;6.528;2023-05-08T01:06:47;6.37;;;5.27;;
27857;SDS011;16852;51.446;6.528;2023-05-08T01:08:47;7.90;;;5.57;;
27857;SDS011;16852;51.446;6.528;2023-05-08T01:13:10;5.70;;;4.63;;
27857;SDS011;16852;51.446;6.528;2023-05-08T01:15:21;6.53;;;4.75;;
27857;SDS011;16852;51.446;6.528;2023-05-08T01:17:37;5.63;;;4.55;;
27857;SDS011;16852;51.446;6.528;2023-05-08T01:31:23;6.43;;;5.03;;
27857;SDS011;16852;51.446;6.528;2023-05-08T01:33:52;5.63;;;4.70;;
27857;SDS011;16852;51.446;6.528;2023-05-08T01:36:36;5.65;;;4.80;;
27857;SDS011;16852;51.446;6.528;2023-05-08T01:39:00;5.88;;;4.70;;
27857;SDS011;16852;51.446;6.528;2023-05-08T01:41:17;7.20;;;5.50;;
27857;SDS011;16852;51.446;6.528;2023-05-08T01:43:49;8.32;;;6.15;;
27857;SDS011;16852;51.446;6.528;2023-05-08T01:45:53;9.88;;;7.13;;
27857;SDS011;16852;51.446;6.528;2023-05-08T01:50:04;8.75;;;6.88;;
27857;SDS011;16852;51.446;6.528;2023-05-08T01:52:32;11.05;;;7.38;;
27857;SDS011;16852;51.446;6.528;2023-05-08T01:54:38;8.30;;;6.93;;
27857;SDS011;16852;51.446;6.528;2023-05-08T01:56:56;6.32;;;5.25;;
27857;SDS011;16852;51.446;6.528;2023-05-08T01:58:58;6.75;;;5.20;;
27857;SDS011;16852;51.446;6.528;2023-05-08T02:01:01;7.97;;;6.43;;
27857;SDS011;16852;51.446;6.528;2023-05-08T02:03:04;6.13;;;5.35;;
27857;SDS011;16852;51.446;6.528;2023-05-08T02:05:07;6.78;;;5.10;;
27857;SDS011;16852;51.446;6.528;2023-05-08T02:07:08;10.05;;;6.03;;
27857;SDS011;16852;51.446;6.528;2023-05-08T02:09:09;7.07;;;5.72;;
27857;SDS011;16852;51.446;6.528;2023-05-08T02:11:11;6.85;;;5.72;;
27857;SDS011;16852;51.446;6.528;2023-05-08T02:13:13;7.35;;;6.18;;
27857;SDS011;16852;51.446;6.528;2023-05-08T02:15:18;6.97;;;5.78;;
27857;SDS011;16852;51.446;6.528;2023-05-08T02:17:20;7.93;;;5.88;;
27857;SDS011;16852;51.446;6.528;2023-05-08T02:19:21;8.30;;;6.15;;
27857;SDS011;16852;51.446;6.528;2023-05-08T02:21:24;8.40;;;6.72;;
27857;SDS011;16852;51.446;6.528;2023-05-08T02:23:26;10.30;;;6.97;;
27857;SDS011;16852;51.446;6.528;2023-05-08T02:25:28;8.25;;;6.43;;
27857;SDS011;16852;51.446;6.528;2023-05-08T02:27:29;7.37;;;6.33;;
27857;SDS011;16852;51.446;6.528;2023-05-08T02:29:31;8.52;;;6.80;;
27857;SDS011;16852;51.446;6.528;2023-05-08T02:31:32;7.78;;;6.60;;
27857;SDS011;16852;51.446;6.528;2023-05-08T02:33:34;7.30;;;6.25;;
27857;SDS011;16852;51.446;6.528;2023-05-08T02:35:38;7.00;;;5.75;;
27857;SDS011;16852;51.446;6.528;2023-05-08T02:37:42;9.43;;;6.80;;
27857;SDS011;16852;51.446;6.528;2023-05-08T02:39:44;8.52;;;6.45;;
27857;SDS011;16852;51.446;6.528;2023-05-08T02:41:46;8.07;;;5.68;;
27857;SDS011;16852;51.446;6.528;2023-05-08T02:43:47;7.13;;;5.97;;
27857;SDS011;16852;51.446;6.528;2023-05-08T02:45:51;6.82;;;5.82;;
27857;SDS011;16852;51.446;6.528;2023-05-08T02:48:23;6.68;;;5.50;;
27857;SDS011;16852;51.446;6.528;2023-05-08T02:50:34;7.63;;;6.00;;
27857;SDS011;16852;51.446;6.528;2023-05-08T02:55:10;4.78;;;4.10;;
27857;SDS011;16852;51.446;6.528;2023-05-08T02:57:26;4.90;;;4.07;;
27857;SDS011;16852;51.446;6.528;2023-05-08T02:59:50;4.35;;;3.95;;
27857;SDS011;16852;51.446;6.528;2023-05-08T03:02:08;5.03;;;4.38;;
27857;SDS011;16852;51.446;6.528;2023-05-08T03:06:18;4.72;;;4.28;;
27857;SDS011;16852;51.446;6.528;2023-05-08T03:08:25;5.50;;;4.82;;
27857;SDS011;16852;51.446;6.528;2023-05-08T03:10:33;6.43;;;5.55;;
27857;SDS011;16852;51.446;6.528;2023-05-08T03:12:36;5.93;;;5.28;;
27857;SDS011;16852;51.446;6.528;2023-05-08T03:14:43;7.30;;;5.65;;
27857;SDS011;16852;51.446;6.528;2023-05-08T03:16:49;6.38;;;5.03;;
27857;SDS011;16852;51.446;6.528;2023-05-08T03:18:55;5.65;;;4.45;;
27857;SDS011;16852;51.446;6.528;2023-05-08T03:20:59;5.47;;;4.93;;
27857;SDS011;16852;51.446;6.528;2023-05-08T03:23:01;6.75;;;5.47;;
27857;SDS011;16852;51.446;6.528;2023-05-08T03:25:03;6.90;;;5.30;;
27857;SDS011;16852;51.446;6.528;2023-05-08T03:27:08;6.60;;;5.68;;
27857;SDS011;16852;51.446;6.528;2023-05-08T03:29:09;6.45;;;4.95;;
27857;SDS011;16852;51.446;6.528;2023-05-08T03:33:15;6.40;;;5.30;;
27857;SDS011;16852;51.446;6.528;2023-05-08T03:35:17;7.10;;;5.75;;
27857;SDS011;16852;51.446;6.528;2023-05-08T03:37:18;7.60;;;5.75;;
27857;SDS011;16852;51.446;6.528;2023-05-08T03:39:19;7.55;;;6.30;;
27857;SDS011;16852;51.446;6.528;2023-05-08T03:41:20;7.85;;;5.93;;
27857;SDS011;16852;51.446;6.528;2023-05-08T03:43:21;7.18;;;6.00;;
27857;SDS011;16852;51.446;6.528;2023-05-08T03:45:23;8.45;;;6.47;;
27857;SDS011;16852;51.446;6.528;2023-05-08T03:47:24;7.37;;;6.30;;
27857;SDS011;16852;51.446;6.528;2023-05-08T03:49:26;7.10;;;6.10;;
27857;SDS011;16852;51.446;6.528;2023-05-08T03:51:29;6.75;;;6.05;;
27857;SDS011;16852;51.446;6.528;2023-05-08T03:53:31;7.57;;;6.20;;
27857;SDS011;16852;51.446;6.528;2023-05-08T03:55:32;6.80;;;5.70;;
27857;SDS011;16852;51.446;6.528;2023-05-08T03:57:34;6.80;;;5.40;;
27857;SDS011;16852;51.446;6.528;2023-05-08T04:00:02;8.25;;;5.63;;
27857;SDS011;16852;51.446;6.528;2023-05-08T04:06:45;6.97;;;5.47;;
27857;SDS011;16852;51.446;6.528;2023-05-08T04:08:54;6.60;;;5.57;;
27857;SDS011;16852;51.446;6.528;2023-05-08T04:11:08;7.13;;;6.07;;
27857;SDS011;16852;51.446;6.528;2023-05-08T04:13:30;6.50;;;5.72;;
27857;SDS011;16852;51.446;6.528;2023-05-08T04:15:35;6.85;;;5.88;;
27857;SDS011;16852;51.446;6.528;2023-05-08T04:17:40;7.50;;;6.10;;
27857;SDS011;16852;51.446;6.528;2023-05-08T04:19:44;8.52;;;6.47;;
27857;SDS011;16852;51.446;6.528;2023-05-08T04:21:46;8.20;;;6.40;;
27857;SDS011;16852;51.446;6.528;2023-05-08T04:25:50;7.47;;;6.18;;
27857;SDS011;16852;51.446;6.528;2023-05-08T04:27:52;8.88;;;6.68;;
27857;SDS011;16852;51.446;6.528;2023-05-08T04:31:55;8.00;;;6.95;;
27857;SDS011;16852;51.446;6.528;2023-05-08T04:33:56;9.82;;;7.55;;
27857;SDS011;16852;51.446;6.528;2023-05-08T04:35:59;9.73;;;7.50;;
27857;SDS011;16852;51.446;6.528;2023-05-08T04:38:01;10.20;;;7.93;;
27857;SDS011;16852;51.446;6.528;2023-05-08T04:40:02;10.85;;;8.98;;
27857;SDS011;16852;51.446;6.528;2023-05-08T04:42:04;9.40;;;7.53;;
27857;SDS011;16852;51.446;6.528;2023-05-08T04:44:04;10.15;;;8.20;;
27857;SDS011;16852;51.446;6.528;2023-05-08T04:46:05;8.90;;;7.45;;
27857;SDS011;16852;51.446;6.528;2023-05-08T04:48:05;8.85;;;7.35;;
27857;SDS011;16852;51.446;6.528;2023-05-08T04:50:06;8.27;;;6.75;;
27857;SDS011;16852;51.446;6.528;2023-05-08T04:52:07;10.38;;;7.60;;
27857;SDS011;16852;51.446;6.528;2023-05-08T04:54:08;10.38;;;7.22;;
27857;SDS011;16852;51.446;6.528;2023-05-08T04:56:08;7.90;;;6.80;;
27857;SDS011;16852;51.446;6.528;2023-05-08T04:58:09;8.45;;;7.05;;
27857;SDS011;16852;51.446;6.528;2023-05-08T05:00:10;9.00;;;6.97;;
27857;SDS011;16852;51.446;6.528;2023-05-08T05:02:11;9.65;;;8.02;;
27857;SDS011;16852;51.446;6.528;2023-05-08T05:04:11;8.18;;;7.07;;
27857;SDS011;16852;51.446;6.528;2023-05-08T05:06:12;8.60;;;7.45;;
27857;SDS011;16852;51.446;6.528;2023-05-08T05:08:13;8.57;;;7.20;;
27857;SDS011;16852;51.446;6.528;2023-05-08T05:10:13;8.48;;;7.13;;
27857;SDS011;16852;51.446;6.528;2023-05-08T05:12:14;9.30;;;7.53;;
27857;SDS011;16852;51.446;6.528;2023-05-08T05:14:15;10.25;;;7.63;;
27857;SDS011;16852;51.446;6.528;2023-05-08T05:16:15;10.13;;;7.65;;
27857;SDS011;16852;51.446;6.528;2023-05-08T05:18:16;9.82;;;7.30;;
27857;SDS011;16852;51.446;6.528;2023-05-08T05:20:17;9.15;;;7.88;;
27857;SDS011;16852;51.446;6.528;2023-05-08T05:22:17;11.60;;;9.05;;
27857;SDS011;16852;51.446;6.528;2023-05-08T05:24:18;10.05;;;8.13;;
27857;SDS011;16852;51.446;6.528;2023-05-08T05:26:18;9.13;;;7.55;;
27857;SDS011;16852;51.446;6.528;2023-05-08T05:28:20;10.43;;;7.95;;
27857;SDS011;16852;51.446;6.528;2023-05-08T05:30:21;12.63;;;8.88;;
27857;SDS011;16852;51.446;6.528;2023-05-08T05:32:21;10.75;;;8.18;;
27857;SDS011;16852;51.446;6.528;2023-05-08T05:34:22;10.88;;;8.05;;
27857;SDS011;16852;51.446;6.528;2023-05-08T05:36:22;10.80;;;7.55;;
27857;SDS011;16852;51.446;6.528;2023-05-08T05:38:23;10.85;;;8.18;;
27857;SDS011;16852;51.446;6.528;2023-05-08T05:40:24;8.27;;;6.35;;
27857;SDS011;16852;51.446;6.528;2023-05-08T05:42:25;9.65;;;6.97;;
27857;SDS011;16852;51.446;6.528;2023-05-08T05:44:25;7.55;;;6.40;;
27857;SDS011;16852;51.446;6.528;2023-05-08T05:46:26;8.57;;;6.63;;
27857;SDS011;16852;51.446;6.528;2023-05-08T05:48:31;8.48;;;6.82;;
27857;SDS011;16852;51.446;6.528;2023-05-08T05:50:31;7.63;;;6.13;;
27857;SDS011;16852;51.446;6.528;2023-05-08T05:52:32;9.20;;;6.50;;
27857;SDS011;16852;51.446;6.528;2023-05-08T05:54:33;9.90;;;7.00;;
27857;SDS011;16852;51.446;6.528;2023-05-08T05:56:33;11.30;;;6.72;;
27857;SDS011;16852;51.446;6.528;2023-05-08T05:58:34;12.02;;;7.22;;
27857;SDS011;16852;51.446;6.528;2023-05-08T06:00:34;9.00;;;6.75;;
27857;SDS011;16852;51.446;6.528;2023-05-08T06:02:35;10.30;;;7.00;;
27857;SDS011;16852;51.446;6.528;2023-05-08T06:04:36;7.43;;;5.82;;
27857;SDS011;16852;51.446;6.528;2023-05-08T06:06:36;9.18;;;6.20;;
27857;SDS011;16852;51.446;6.528;2023-05-08T06:08:37;7.75;;;6.28;;
27857;SDS011;16852;51.446;6.528;2023-05-08T06:10:39;9.07;;;6.70;;
27857;SDS011;16852;51.446;6.528;2023-05-08T06:12:39;7.82;;;5.70;;
27857;SDS011;16852;51.446;6.528;2023-05-08T06:14:40;7.88;;;6.28;;
27857;SDS011;16852;51.446;6.528;2023-05-08T06:16:41;9.88;;;6.70;;
27857;SDS011;16852;51.446;6.528;2023-05-08T06:18:43;9.18;;;6.63;;
27857;SDS011;16852;51.446;6.528;2023-05-08T06:20:44;8.18;;;6.30;;
27857;SDS011;16852;51.446;6.528;2023-05-08T06:22:45;9.10;;;6.35;;
27857;SDS011;16852;51.446;6.528;2023-05-08T06:24:45;8.85;;;6.38;;
27857;SDS011;16852;51.446;6.528;2023-05-08T06:26:46;9.45;;;6.68;;
27857;SDS011;16852;51.446;6.528;2023-05-08T06:28:47;12.88;;;7.55;;
27857;SDS011;16852;51.446;6.528;2023-05-08T06:30:47;9.00;;;6.95;;
27857;SDS011;16852;51.446;6.528;2023-05-08T06:32:48;8.52;;;6.25;;
27857;SDS011;16852;51.446;6.528;2023-05-08T06:34:48;9.10;;;6.70;;
27857;SDS011;16852;51.446;6.528;2023-05-08T06:36:49;10.45;;;7.20;;
27857;SDS011;16852;51.446;6.528;2023-05-08T06:38:49;6.30;;;5.45;;
27857;SDS011;16852;51.446;6.528;2023-05-08T06:40:50;8.95;;;5.40;;
27857;SDS011;16852;51.446;6.528;2023-05-08T06:42:51;8.65;;;6.53;;
27857;SDS011;16852;51.446;6.528;2023-05-08T06:44:51;8.40;;;6.25;;
27857;SDS011;16852;51.446;6.528;2023-05-08T06:46:52;7.10;;;5.57;;
27857;SDS011;16852;51.446;6.528;2023-05-08T06:48:54;7.13;;;6.15;;
27857;SDS011;16852;51.446;6.528;2023-05-08T06:50:54;8.48;;;6.13;;
27857;SDS011;16852;51.446;6.528;2023-05-08T06:52:55;8.18;;;6.55;;
27857;SDS011;16852;51.446;6.528;2023-05-08T06:54:56;7.97;;;6.22;;
27857;SDS011;16852;51.446;6.528;2023-05-08T06:56:56;8.55;;;5.90;;
27857;SDS011;16852;51.446;6.528;2023-05-08T06:58:57;9.77;;;6.05;;
27857;SDS011;16852;51.446;6.528;2023-05-08T07:00:58;7.90;;;5.65;;
27857;SDS011;16852;51.446;6.528;2023-05-08T07:02:59;8.10;;;5.60;;
27857;SDS011;16852;51.446;6.528;2023-05-08T07:05:00;6.97;;;5.60;;
27857;SDS011;16852;51.446;6.528;2023-05-08T07:07:00;5.72;;;4.95;;
27857;SDS011;16852;51.446;6.528;2023-05-08T07:09:01;6.22;;;5.40;;
27857;SDS011;16852;51.446;6.528;2023-05-08T07:11:02;7.22;;;5.80;;
27857;SDS011;16852;51.446;6.528;2023-05-08T07:13:03;8.80;;;5.68;;
27857;SDS011;16852;51.446;6.528;2023-05-08T07:15:04;6.78;;;5.70;;
27857;SDS011;16852;51.446;6.528;2023-05-08T07:17:05;6.28;;;5.40;;
27857;SDS011;16852;51.446;6.528;2023-05-08T07:19:06;7.82;;;5.78;;
27857;SDS011;16852;51.446;6.528;2023-05-08T07:21:06;6.35;;;5.30;;
27857;SDS011;16852;51.446;6.528;2023-05-08T07:23:07;7.05;;;5.35;;
27857;SDS011;16852;51.446;6.528;2023-05-08T07:25:09;9.57;;;6.28;;
27857;SDS011;16852;51.446;6.528;2023-05-08T07:27:09;6.82;;;5.70;;
27857;SDS011;16852;51.446;6.528;2023-05-08T07:29:10;6.20;;;5.18;;
27857;SDS011;16852;51.446;6.528;2023-05-08T07:31:10;7.50;;;5.72;;
27857;SDS011;16852;51.446;6.528;2023-05-08T07:33:11;9.30;;;5.82;;
27857;SDS011;16852;51.446;6.528;2023-05-08T07:35:12;7.05;;;4.78;;
27857;SDS011;16852;51.446;6.528;2023-05-08T07:37:12;7.22;;;5.25;;
27857;SDS011;16852;51.446;6.528;2023-05-08T07:39:13;6.43;;;5.57;;
27857;SDS011;16852;51.446;6.528;2023-05-08T07:41:14;7.55;;;6.05;;
27857;SDS011;16852;51.446;6.528;2023-05-08T07:43:15;7.78;;;6.15;;
27857;SDS011;16852;51.446;6.528;2023-05-08T07:45:15;7.30;;;5.75;;
27857;SDS011;16852;51.446;6.528;2023-05-08T07:47:16;8.40;;;5.63;;
27857;SDS011;16852;51.446;6.528;2023-05-08T07:49:17;6.88;;;5.10;;
27857;SDS011;16852;51.446;6.528;2023-05-08T07:51:17;6.78;;;4.93;;
27857;SDS011;16852;51.446;6.528;2023-05-08T07:53:18;7.20;;;5.68;;
27857;SDS011;16852;51.446;6.528;2023-05-08T07:55:19;5.75;;;5.00;;
27857;SDS011;16852;51.446;6.528;2023-05-08T07:57:20;7.25;;;5.65;;
27857;SDS011;16852;51.446;6.528;2023-05-08T07:59:21;7.55;;;5.57;;
27857;SDS011;16852;51.446;6.528;2023-05-08T08:01:21;6.55;;;5.18;;
27857;SDS011;16852;51.446;6.528;2023-05-08T08:03:22;5.88;;;5.28;;
27857;SDS011;16852;51.446;6.528;2023-05-08T08:05:22;7.68;;;6.18;;
27857;SDS011;16852;51.446;6.528;2023-05-08T08:07:23;10.00;;;6.20;;
27857;SDS011;16852;51.446;6.528;2023-05-08T08:09:24;8.30;;;6.80;;
27857;SDS011;16852;51.446;6.528;2023-05-08T08:11:24;10.98;;;8.18;;
27857;SDS011;16852;51.446;6.528;2023-05-08T08:13:25;12.00;;;8.43;;
27857;SDS011;16852;51.446;6.528;2023-05-08T08:15:26;12.65;;;9.80;;
27857;SDS011;16852;51.446;6.528;2023-05-08T08:17:27;8.60;;;7.37;;
27857;SDS011;16852;51.446;6.528;2023-05-08T08:19:28;10.38;;;8.20;;
27857;SDS011;16852;51.446;6.528;2023-05-08T08:21:28;11.45;;;7.70;;
27857;SDS011;16852;51.446;6.528;2023-05-08T08:23:30;10.30;;;8.52;;
27857;SDS011;16852;51.446;6.528;2023-05-08T08:25:30;8.75;;;7.55;;
27857;SDS011;16852;51.446;6.528;2023-05-08T08:27:31;11.77;;;9.07;;
27857;SDS011;16852;51.446;6.528;2023-05-08T08:29:32;9.45;;;7.90;;
27857;SDS011;16852;51.446;6.528;2023-05-08T08:31:33;10.30;;;8.20;;
27857;SDS011;16852;51.446;6.528;2023-05-08T08:33:33;10.70;;;8.38;;
27857;SDS011;16852;51.446;6.528;2023-05-08T08:35:34;7.95;;;6.65;;
27857;SDS011;16852;51.446;6.528;2023-05-08T08:37:34;8.40;;;6.63;;
27857;SDS011;16852;51.446;6.528;2023-05-08T08:39:35;7.80;;;6.03;;
27857;SDS011;16852;51.446;6.528;2023-05-08T08:41:37;7.57;;;6.07;;
27857;SDS011;16852;51.446;6.528;2023-05-08T08:43:38;6.93;;;5.00;;
27857;SDS011;16852;51.446;6.528;2023-05-08T08:45:42;5.85;;;4.47;;
27857;SDS011;16852;51.446;6.528;2023-05-08T08:47:43;5.53;;;4.50;;
27857;SDS011;16852;51.446;6.528;2023-05-08T08:49:47;7.60;;;5.47;;
27857;SDS011;16852;51.446;6.528;2023-05-08T08:51:51;5.32;;;4.57;;
27857;SDS011;16852;51.446;6.528;2023-05-08T08:54:06;5.95;;;4.70;;
27857;SDS011;16852;51.446;6.528;2023-05-08T08:56:09;5.63;;;4.40;;
27857;SDS011;16852;51.446;6.528;2023-05-08T08:58:13;8.30;;;4.75;;
27857;SDS011;16852;51.446;6.528;2023-05-08T09:00:17;4.90;;;3.67;;
27857;SDS011;16852;51.446;6.528;2023-05-08T09:02:19;5.50;;;4.03;;
27857;SDS011;16852;51.446;6.528;2023-05-08T09:04:22;4.80;;;3.45;;
27857;SDS011;16852;51.446;6.528;2023-05-08T09:06:26;4.53;;;3.15;;
27857;SDS011;16852;51.446;6.528;2023-05-08T09:08:27;3.97;;;3.30;;
27857;SDS011;16852;51.446;6.528;2023-05-08T09:10:28;4.28;;;2.90;;
27857;SDS011;16852;51.446;6.528;2023-05-08T09:12:29;3.55;;;3.00;;
27857;SDS011;16852;51.446;6.528;2023-05-08T09:14:30;4.35;;;2.97;;
27857;SDS011;16852;51.446;6.528;2023-05-08T09:16:30;6.22;;;3.03;;
27857;SDS011;16852;51.446;6.528;2023-05-08T09:18:31;3.38;;;2.55;;
27857;SDS011;16852;51.446;6.528;2023-05-08T09:20:32;2.58;;;2.20;;
27857;SDS011;16852;51.446;6.528;2023-05-08T09:22:34;3.03;;;2.38;;
27857;SDS011;16852;51.446;6.528;2023-05-08T09:24:54;3.40;;;2.40;;
27857;SDS011;16852;51.446;6.528;2023-05-08T09:26:59;3.00;;;2.30;;
27857;SDS011;16852;51.446;6.528;2023-05-08T09:29:09;4.57;;;3.25;;
27857;SDS011;16852;51.446;6.528;2023-05-08T09:31:12;3.85;;;2.80;;
27857;SDS011;16852;51.446;6.528;2023-05-08T09:33:12;2.45;;;2.15;;
27857;SDS011;16852;51.446;6.528;2023-05-08T09:35:13;3.40;;;2.55;;
27857;SDS011;16852;51.446;6.528;2023-05-08T09:37:14;3.67;;;3.30;;
27857;SDS011;16852;51.446;6.528;2023-05-08T09:39:20;4.97;;;3.72;;
27857;SDS011;16852;51.446;6.528;2023-05-08T09:41:22;3.53;;;3.22;;
27857;SDS011;16852;51.446;6.528;2023-05-08T09:43:23;3.78;;;3.42;;
27857;SDS011;16852;51.446;6.528;2023-05-08T09:45:27;5.35;;;4.05;;
27857;SDS011;16852;51.446;6.528;2023-05-08T09:47:30;5.43;;;4.40;;
27857;SDS011;16852;51.446;6.528;2023-05-08T09:49:30;5.47;;;4.85;;
27857;SDS011;16852;51.446;6.528;2023-05-08T09:51:31;5.40;;;4.90;;
27857;SDS011;16852;51.446;6.528;2023-05-08T09:53:32;6.80;;;3.95;;
27857;SDS011;16852;51.446;6.528;2023-05-08T09:55:45;7.32;;;4.38;;
27857;SDS011;16852;51.446;6.528;2023-05-08T09:57:59;10.05;;;5.18;;
27857;SDS011;16852;51.446;6.528;2023-05-08T10:00:00;4.65;;;4.10;;
27857;SDS011;16852;51.446;6.528;2023-05-08T10:04:09;3.88;;;3.58;;
27857;SDS011;16852;51.446;6.528;2023-05-08T10:06:13;4.38;;;3.70;;
27857;SDS011;16852;51.446;6.528;2023-05-08T10:08:18;4.75;;;4.22;;
27857;SDS011;16852;51.446;6.528;2023-05-08T10:10:27;6.63;;;4.80;;
27857;SDS011;16852;51.446;6.528;2023-05-08T10:12:30;4.55;;;4.10;;
27857;SDS011;16852;51.446;6.528;2023-05-08T10:14:31;5.85;;;4.20;;
27857;SDS011;16852;51.446;6.528;2023-05-08T10:16:35;4.35;;;3.70;;
27857;SDS011;16852;51.446;6.528;2023-05-08T10:18:46;4.90;;;4.05;;
27857;SDS011;16852;51.446;6.528;2023-05-08T10:20:49;4.63;;;3.70;;
27857;SDS011;16852;51.446;6.528;2023-05-08T10:22:51;6.45;;;4.57;;
27857;SDS011;16852;51.446;6.528;2023-05-08T10:24:55;4.10;;;3.70;;
27857;SDS011;16852;51.446;6.528;2023-05-08T10:27:04;7.07;;;5.03;;
27857;SDS011;16852;51.446;6.528;2023-05-08T10:29:16;6.10;;;5.38;;
27857;SDS011;16852;51.446;6.528;2023-05-08T10:31:20;5.68;;;4.65;;
27857;SDS011;16852;51.446;6.528;2023-05-08T10:33:24;4.90;;;4.22;;
27857;SDS011;16852;51.446;6.528;2023-05-08T10:35:30;6.03;;;4.63;;
27857;SDS011;16852;51.446;6.528;2023-05-08T10:37:31;5.63;;;4.30;;
27857;SDS011;16852;51.446;6.528;2023-05-08T10:39:35;5.78;;;4.55;;
27857;SDS011;16852;51.446;6.528;2023-05-08T10:41:36;5.32;;;4.40;;
27857;SDS011;16852;51.446;6.528;2023-05-08T10:43:40;7.03;;;4.43;;
27857;SDS011;16852;51.446;6.528;2023-05-08T10:45:41;6.13;;;5.15;;
27857;SDS011;16852;51.446;6.528;2023-05-08T10:50:21;6.60;;;5.55;;
27857;SDS011;16852;51.446;6.528;2023-05-08T10:52:52;6.85;;;5.57;;
27857;SDS011;16852;51.446;6.528;2023-05-08T10:55:08;9.30;;;5.38;;
27857;SDS011;16852;51.446;6.528;2023-05-08T10:57:27;8.02;;;5.50;;
27857;SDS011;16852;51.446;6.528;2023-05-08T10:59:27;6.82;;;5.13;;
27857;SDS011;16852;51.446;6.528;2023-05-08T11:01:33;4.90;;;4.40;;
27857;SDS011;16852;51.446;6.528;2023-05-08T11:03:39;6.82;;;5.55;;
27857;SDS011;16852;51.446;6.528;2023-05-08T11:05:43;5.72;;;5.00;;
27857;SDS011;16852;51.446;6.528;2023-05-08T11:07:52;5.63;;;4.57;;
27857;SDS011;16852;51.446;6.528;2023-05-08T11:10:05;4.60;;;3.92;;
27857;SDS011;16852;51.446;6.528;2023-05-08T11:14:29;3.92;;;3.35;;
27857;SDS011;16852;51.446;6.528;2023-05-08T11:19:14;5.43;;;4.80;;
27857;SDS011;16852;51.446;6.528;2023-05-08T11:21:18;4.70;;;3.45;;
27857;SDS011;16852;51.446;6.528;2023-05-08T11:23:26;5.10;;;4.07;;
27857;SDS011;16852;51.446;6.528;2023-05-08T11:25:40;4.63;;;4.13;;
27857;SDS011;16852;51.446;6.528;2023-05-08T11:32:18;7.50;;;5.70;;
27857;SDS011;16852;51.446;6.528;2023-05-08T11:36:42;6.57;;;4.45;;
27857;SDS011;16852;51.446;6.528;2023-05-08T11:39:07;5.38;;;4.35;;
27857;SDS011;16852;51.446;6.528;2023-05-08T11:41:23;5.68;;;4.47;;
27857;SDS011;16852;51.446;6.528;2023-05-08T11:45:37;4.38;;;3.80;;
27857;SDS011;16852;51.446;6.528;2023-05-08T11:47:41;6.18;;;4.72;;
27857;SDS011;16852;51.446;6.528;2023-05-08T11:49:43;7.43;;;4.40;;
27857;SDS011;16852;51.446;6.528;2023-05-08T11:51:44;4.47;;;3.92;;
27857;SDS011;16852;51.446;6.528;2023-05-08T11:53:46;4.30;;;3.90;;
27857;SDS011;16852;51.446;6.528;2023-05-08T11:55:48;5.63;;;4.65;;
27857;SDS011;16852;51.446;6.528;2023-05-08T11:57:53;4.50;;;3.55;;
27857;SDS011;16852;51.446;6.528;2023-05-08T11:59:54;4.43;;;3.70;;
27857;SDS011;16852;51.446;6.528;2023-05-08T12:01:55;5.65;;;4.40;;
27857;SDS011;16852;51.446;6.528;2023-05-08T12:03:59;5.15;;;3.67;;
27857;SDS011;16852;51.446;6.528;2023-05-08T12:06:00;4.88;;;3.38;;
27857;SDS011;16852;51.446;6.528;2023-05-08T12:08:01;5.40;;;3.90;;
27857;SDS011;16852;51.446;6.528;2023-05-08T12:10:03;5.73;;;3.50;;
27857;SDS011;16852;51.446;6.528;2023-05-08T12:12:04;4.78;;;3.78;;
27857;SDS011;16852;51.446;6.528;2023-05-08T12:14:04;5.40;;;4.10;;
27857;SDS011;16852;51.446;6.528;2023-05-08T12:16:05;4.95;;;4.10;;
27857;SDS011;16852;51.446;6.528;2023-05-08T12:18:06;4.60;;;3.25;;
27857;SDS011;16852;51.446;6.528;2023-05-08T12:20:10;5.47;;;3.80;;
27857;SDS011;16852;51.446;6.528;2023-05-08T12:22:15;4.07;;;3.60;;
27857;SDS011;16852;51.446;6.528;2023-05-08T12:24:16;5.43;;;3.80;;
27857;SDS011;16852;51.446;6.528;2023-05-08T12:26:21;4.35;;;3.30;;
27857;SDS011;16852;51.446;6.528;2023-05-08T12:28:22;3.70;;;3.28;;
27857;SDS011;16852;51.446;6.528;2023-05-08T12:30:22;4.07;;;3.22;;
27857;SDS011;16852;51.446;6.528;2023-05-08T12:32:23;6.82;;;4.20;;
27857;SDS011;16852;51.446;6.528;2023-05-08T12:34:24;6.00;;;4.05;;
27857;SDS011;16852;51.446;6.528;2023-05-08T12:36:25;5.80;;;3.72;;
27857;SDS011;16852;51.446;6.528;2023-05-08T12:38:27;4.40;;;3.47;;
27857;SDS011;16852;51.446;6.528;2023-05-08T12:40:29;3.30;;;3.00;;
27857;SDS011;16852;51.446;6.528;2023-05-08T12:42:40;3.78;;;3.38;;
27857;SDS011;16852;51.446;6.528;2023-05-08T12:44:48;4.22;;;3.47;;
27857;SDS011;16852;51.446;6.528;2023-05-08T12:46:54;4.43;;;3.13;;
27857;SDS011;16852;51.446;6.528;2023-05-08T12:49:02;5.53;;;3.83;;
27857;SDS011;16852;51.446;6.528;2023-05-08T12:51:06;16.23;;;4.63;;
27857;SDS011;16852;51.446;6.528;2023-05-08T12:53:09;6.68;;;4.43;;
27857;SDS011;16852;51.446;6.528;2023-05-08T12:55:21;6.95;;;4.13;;
27857;SDS011;16852;51.446;6.528;2023-05-08T12:57:29;3.78;;;3.35;;
27857;SDS011;16852;51.446;6.528;2023-05-08T12:59:32;3.85;;;2.83;;
27857;SDS011;16852;51.446;6.528;2023-05-08T13:01:33;5.53;;;4.05;;
27857;SDS011;16852;51.446;6.528;2023-05-08T13:03:34;4.70;;;3.35;;
27857;SDS011;16852;51.446;6.528;2023-05-08T13:05:36;4.30;;;3.42;;
27857;SDS011;16852;51.446;6.528;2023-05-08T13:07:40;5.75;;;3.55;;
27857;SDS011;16852;51.446;6.528;2023-05-08T13:09:54;6.53;;;3.70;;
27857;SDS011;16852;51.446;6.528;2023-05-08T13:11:56;4.82;;;4.03;;